Saturday, March 28, 2015, 1:11 AM EDT

KPHF, Williamsburg International Airport

Location: Newport News, VA, United States Lat: 37.133
Local Time: 1:11 AM EDT ( 5:11 GMT) Lon: -76.5
Time Zone: US/Eastern Elev: 42 ft

Show me the last for .
Show Decoded

2015-03-27 23:54 METAR KPHF 280354Z 33006KT 8SM OVC080 06/03 A2980 RMK AO2 SLP091 T00610028 =
2015-03-27 23:35 METAR KPHF 280335Z 34004KT 8SM SCT011 OVC070 06/03 A2980 =
2015-03-27 22:54 METAR KPHF 280254Z 34003KT 6SM HZ OVC070 06/03 A2980 RMK AO2 SLP091 60000
                 T00610028 50001 =
2015-03-27 21:54 METAR KPHF 280154Z 02005KT 8SM BKN050 OVC065 06/03 A2981 RMK AO2 RAB0059E22
                 SLP094 P0000 T00610028 =
2015-03-27 19:54 METAR KPHF 272354Z AUTO 34004KT 9SM FEW009 OVC049 06/03 A2980 RMK AO2 SLP089
                 60002 T00610028 10083 20061 50009 TSNO =
2015-03-27 18:04 METAR KPHF 272204Z AUTO 01005KT 3SM -RA BKN009 BKN014 OVC022 07/04 A2978 RMK AO2
                 CIG 007V011 P0000 T00670039 =
2015-03-27 17:45 METAR KPHF 272145Z AUTO 01005KT 3SM -RA FEW009 BKN019 OVC024 07/04 A2976 RMK AO2
                 RAB2058 P0000 T00670039 =
2015-03-27 17:24 METAR KPHF 272124Z AUTO 36005KT 1 3/4SM -RA OVC015 07/04 A2977 RMK AO2 RAB2058
                 PRESFR P0000 T00720039 =
2015-03-27 14:54 METAR KPHF 271854Z 01008KT 10SM -RA OVC011 08/04 A2977 RMK AO2 SLP081 P0002
                 T00780039 =
2015-03-27 14:35 METAR KPHF 271835Z 01006KT 6SM -RA FEW009 BKN014 OVC020 08/04 A2979 RMK AO2
                 P0002 T00780044 =
2015-03-27 13:44 METAR KPHF 271744Z 01010KT 5SM RA SCT013 SCT055 OVC075 07/03 A2978 RMK AO2 P0006
                 T00720033 =
2015-03-27 13:24 METAR KPHF 271724Z 36010KT 2SM RA SCT009 BKN015 OVC024 07/04 A2981 RMK AO2 P0004
                 T00720039 =
2015-03-27 12:54 METAR KPHF 271654Z 35010KT 3SM -RA BKN010 BKN015 OVC036 08/04 A2982 RMK AO2
                 SLP096 P0002 T00780044 =
2015-03-27 12:47 METAR KPHF 271647Z 35010G17KT 3SM -RA BKN010 BKN018 OVC036 08/04 A2981 RMK AO2
                 P0001 T00780044 =
2015-03-27 12:33 METAR KPHF 271633Z 36010G16KT 5SM -RA SCT010 BKN015 OVC038 08/04 A2980 RMK AO2
                 P0001 T00780044 =
2015-03-27 12:15 METAR KPHF 271615Z 01011KT 3SM -RA BKN014 OVC021 08/04 A2979 RMK AO2 P0001
                 T00780044 =
2015-03-27 11:54 METAR KPHF 271554Z 36012G15KT 4SM -RA BKN013 BKN022 OVC032 08/04 A2979 =
2015-03-27 10:54 METAR KPHF 271454Z 03015G20KT 10SM FEW016 BKN020 OVC032 09/03 A2978 RMK AO2
                 SLP082 60000 T00890033 53004 =
2015-03-27 09:54 METAR KPHF 271354Z 03010G18KT 9SM FEW021 SCT033 OVC041 09/04 A2977 RMK AO2
                 RAE1257 SLP079 P0000 T00940039 =
2015-03-27 09:05 METAR KPHF 271305Z 04014G19KT 10SM SCT022 OVC036 11/04 A2976 RMK AO2 RAE1257
                 P0000 T01060039 =
2015-03-27 08:54 METAR KPHF 271254Z 02015G20KT 10SM -RA BKN021 OVC034 11/05 A2977 RMK AO2
                 RAB01E27B48 SLP079 P0000 T01060050 =
2015-03-27 07:54 METAR KPHF 271154Z 01008KT 10SM BKN022 OVC033 11/05 A2976 RMK AO2 SLP078 60000
                 70029 T01060050 10200 20106 53024 =
2015-03-27 05:54 METAR KPHF 270954Z 01013G21KT 10SM SCT015 OVC026 12/06 A2971 =
2015-03-27 05:30 METAR KPHF 270930Z 01012G19KT 10SM OVC014 13/08 A2971 RMK AO2 T01280078 =
2015-03-27 01:54 METAR KPHF 270554Z 21010KT 10SM FEW055 19/14 A2969 RMK AO2 SLP053 T01940139
                 10206 20194 58005 =

Support USWX by starting your Amazon purchase here.